CheckWX is a tool to help pilots better visualize weather data.  It is not intended as a substitute for an official pre-flight weather briefing.

21:52:31 UTC

KDPA METAR
Dupage Airport
Chicago/West Chicago, Illinois, USA
Current

1 hour ago

KDPA 162052Z 32013G22KT 10SM OVC050 12/01 A2997 RMK AO2 PK WND 32026/2038 SLP149 T01170011 53006
Observed
Oct-16 @ 20:52 UTC
Wind
  • 320° at 13 KTS
  • Gusting to 22 KTS
Visibility
10 SM
Flight Rules
VFR
Cloud Levels
  • Overcast at 5,000' AGL
Temperature
12°C / 54°F
Dewpoint
C / 34°F
Humidity
47%
Altimeter
29.97" Hg
Pressure
1014.92 hPa
Previous

2 hours ago

KDPA 161952Z 31017KT 10SM OVC046 12/01 A2996 RMK AO2 SLP146 T01170011
Observed
Oct-16 @ 19:52 UTC
Wind
  • 310° at 17 KTS
Visibility
10 SM
Flight Rules
VFR
Cloud Levels
  • Overcast at 4,600' AGL
Temperature
12°C / 54°F
Dewpoint
C / 34°F
Humidity
47%
Altimeter
29.96" Hg
Pressure
1014.52 hPa
Previous

3 hours ago

KDPA 161852Z 33016G22KT 10SM OVC043 12/02 A2995 RMK AO2 PK WND 30026/1756 SLP144 T01170017
Observed
Oct-16 @ 18:52 UTC
Wind
  • 330° at 16 KTS
  • Gusting to 22 KTS
Visibility
10 SM
Flight Rules
VFR
Cloud Levels
  • Overcast at 4,300' AGL
Temperature
12°C / 54°F
Dewpoint
C / 36°F
Humidity
51%
Altimeter
29.95" Hg
Pressure
1014.22 hPa